Time,TemperatureF,DewpointF,PressureIn,WindDirection,WindDirectionDegrees,WindSpeedMPH,WindSpeedGustMPH,Humidity,HourlyPrecipIn,Conditions,Clouds,dailyrainin,SoftwareType,DateUTC
2013-03-08 00:04:00,29.9,26.0,30.42,SE,124,6.0,8.0,86,0.00,,,0.01,weatherlink.com 1.10,2013-03-08 06:04:00,
2013-03-08 00:19:00,29.8,26.0,30.43,SE,136,1.0,8.0,86,0.00,,,0.01,weatherlink.com 1.10,2013-03-08 06:19:00,
2013-03-08 00:34:00,29.6,26.0,30.43,ESE,123,1.0,8.0,86,0.00,,,0.01,weatherlink.com 1.10,2013-03-08 06:34:00,
2013-03-08 00:49:00,29.4,26.0,30.43,SE,141,0.0,5.0,87,0.00,,,0.01,weatherlink.com 1.10,2013-03-08 06:49:00,
2013-03-08 01:04:00,29.0,26.0,30.44,ESE,117,1.0,3.0,87,0.00,,,0.01,weatherlink.com 1.10,2013-03-08 07:04:00,
2013-03-08 01:19:00,28.4,25.0,30.44,ESE,114,0.0,3.0,88,0.00,,,0.01,weatherlink.com 1.10,2013-03-08 07:19:00,
2013-03-08 01:34:00,28.3,26.0,30.44,SE,133,4.0,7.0,89,0.00,,,0.01,weatherlink.com 1.10,2013-03-08 07:34:00,
2013-03-08 01:49:00,28.4,26.0,30.44,SE,128,0.0,5.0,89,0.00,,,0.01,weatherlink.com 1.10,2013-03-08 07:49:00,
2013-03-08 02:04:00,28.4,26.0,30.43,SE,125,2.0,7.0,89,0.00,,,0.01,weatherlink.com 1.10,2013-03-08 08:04:00,
2013-03-08 02:19:00,28.4,26.0,30.44,SE,127,4.0,8.0,89,0.00,,,0.00,weatherlink.com 1.10,2013-03-08 08:19:00,
2013-03-08 02:34:00,28.4,26.0,30.44,SE,145,4.0,5.0,90,0.00,,,0.00,weatherlink.com 1.10,2013-03-08 08:34:00,
2013-03-08 02:49:00,28.3,26.0,30.44,SE,134,1.0,5.0,89,0.00,,,0.00,weatherlink.com 1.10,2013-03-08 08:49:00,
2013-03-08 03:04:00,28.0,25.0,30.43,SE,138,1.0,6.0,89,0.00,,,0.00,weatherlink.com 1.10,2013-03-08 09:04:00,
2013-03-08 03:20:00,27.8,25.0,30.43,SE,131,0.0,4.0,90,0.00,,,0.00,weatherlink.com 1.10,2013-03-08 09:20:00,
2013-03-08 03:35:00,27.5,25.0,30.43,SSE,166,1.0,3.0,90,0.00,,,0.00,weatherlink.com 1.10,2013-03-08 09:35:00,
2013-03-08 03:50:00,27.0,25.0,30.43,East,93,0.0,3.0,90,0.00,,,0.00,weatherlink.com 1.10,2013-03-08 09:50:00,
2013-03-08 04:05:00,26.9,25.0,30.43,ESE,119,2.0,4.0,91,0.00,,,0.00,weatherlink.com 1.10,2013-03-08 10:05:00,
2013-03-08 04:20:00,27.1,25.0,30.43,SE,140,2.0,5.0,91,0.00,,,0.00,weatherlink.com 1.10,2013-03-08 10:20:00,
2013-03-08 04:35:00,27.1,25.0,30.43,ESE,109,2.0,6.0,91,0.00,,,0.00,weatherlink.com 1.10,2013-03-08 10:35:00,
2013-03-08 04:50:00,27.2,25.0,30.43,East,99,2.0,5.0,91,0.00,,,0.00,weatherlink.com 1.10,2013-03-08 10:50:00,
2013-03-08 05:05:00,27.3,25.0,30.43,ESE,113,0.0,5.0,91,0.00,,,0.00,weatherlink.com 1.10,2013-03-08 11:05:00,
2013-03-08 05:20:00,27.1,25.0,30.44,East,101,0.0,3.0,91,0.00,,,0.00,weatherlink.com 1.10,2013-03-08 11:20:00,
2013-03-08 05:35:00,26.8,24.0,30.44,ESE,117,0.0,3.0,90,0.00,,,0.00,weatherlink.com 1.10,2013-03-08 11:35:00,
2013-03-08 05:51:00,26.4,24.0,30.44,SE,130,0.0,5.0,92,0.00,,,0.00,weatherlink.com 1.10,2013-03-08 11:51:00,
2013-03-08 06:05:00,26.6,25.0,30.44,ESE,106,0.0,5.0,92,0.00,,,0.00,weatherlink.com 1.10,2013-03-08 12:05:00,
2013-03-08 06:20:00,26.7,25.0,30.44,ESE,107,1.0,4.0,91,0.00,,,0.00,weatherlink.com 1.10,2013-03-08 12:20:00,
2013-03-08 06:35:00,26.8,25.0,30.44,ESE,107,0.0,6.0,91,0.00,,,0.00,weatherlink.com 1.10,2013-03-08 12:35:00,
2013-03-08 06:50:00,27.2,25.0,30.45,East,100,1.0,4.0,90,0.00,,,0.00,weatherlink.com 1.10,2013-03-08 12:50:00,
2013-03-08 07:05:00,27.8,25.0,30.45,ESE,123,1.0,5.0,90,0.00,,,0.00,weatherlink.com 1.10,2013-03-08 13:05:00,
2013-03-08 07:20:00,28.5,26.0,30.45,SE,126,3.0,8.0,89,0.00,,,0.00,weatherlink.com 1.10,2013-03-08 13:20:00,
2013-03-08 07:35:00,29.4,27.0,30.44,ESE,123,3.0,8.0,89,0.00,,,0.00,weatherlink.com 1.10,2013-03-08 13:35:00,
2013-03-08 07:50:00,30.3,27.0,30.43,ESE,111,3.0,9.0,86,0.00,,,0.00,weatherlink.com 1.10,2013-03-08 13:50:00,
2013-03-08 08:05:00,31.3,27.0,30.45,SE,127,4.0,11.0,84,0.00,,,0.00,weatherlink.com 1.10,2013-03-08 14:05:00,
2013-03-08 08:20:00,32.3,28.0,30.46,SSE,157,4.0,9.0,83,0.00,,,0.00,weatherlink.com 1.10,2013-03-08 14:20:00,
2013-03-08 08:35:00,33.4,28.0,30.46,SE,142,2.0,9.0,81,0.00,,,0.00,weatherlink.com 1.10,2013-03-08 14:35:00,
2013-03-08 08:50:00,34.3,29.0,30.46,SSE,159,6.0,11.0,80,0.00,,,0.00,weatherlink.com 1.10,2013-03-08 14:50:00,
2013-03-08 09:05:00,35.3,29.0,30.46,SSE,157,6.0,14.0,78,0.00,,,0.00,weatherlink.com 1.10,2013-03-08 15:05:00,
2013-03-08 09:20:00,36.4,30.0,30.46,SSE,167,4.0,11.0,76,0.00,,,0.00,weatherlink.com 1.10,2013-03-08 15:20:00,
2013-03-08 09:35:00,37.2,30.0,30.45,SSE,149,8.0,12.0,75,0.00,,,0.00,weatherlink.com 1.10,2013-03-08 15:35:00,
2013-03-08 09:50:00,37.9,30.0,30.45,SSE,155,7.0,12.0,74,0.00,,,0.00,weatherlink.com 1.10,2013-03-08 15:50:00,
2013-03-08 10:05:00,37.8,30.0,30.46,South,169,8.0,13.0,74,0.00,,,0.00,weatherlink.com 1.10,2013-03-08 16:05:00,
2013-03-08 10:20:00,38.0,30.0,30.45,SE,134,7.0,14.0,74,0.00,,,0.00,weatherlink.com 1.10,2013-03-08 16:20:00,
2013-03-08 10:35:00,38.6,31.0,30.44,SE,135,5.0,17.0,73,0.00,,,0.00,weatherlink.com 1.10,2013-03-08 16:35:00,
2013-03-08 10:51:00,40.2,31.0,30.44,ESE,123,5.0,10.0,71,0.00,,,0.00,weatherlink.com 1.10,2013-03-08 16:51:00,
2013-03-08 11:06:00,40.0,31.0,30.45,SSE,160,9.0,14.0,71,0.00,,,0.00,weatherlink.com 1.10,2013-03-08 17:06:00,
2013-03-08 11:21:00,40.1,32.0,30.44,SSE,157,7.0,16.0,72,0.00,,,0.00,weatherlink.com 1.10,2013-03-08 17:21:00,
2013-03-08 11:36:00,40.5,32.0,30.43,SSE,150,8.0,14.0,71,0.00,,,0.00,weatherlink.com 1.10,2013-03-08 17:36:00,
2013-03-08 11:51:00,40.7,32.0,30.42,South,171,4.0,14.0,71,0.00,,,0.00,weatherlink.com 1.10,2013-03-08 17:51:00,
2013-03-08 12:06:00,41.7,33.0,30.41,SSE,151,3.0,12.0,71,0.00,,,0.00,weatherlink.com 1.10,2013-03-08 18:06:00,
2013-03-08 12:21:00,42.4,33.0,30.40,SSE,153,3.0,11.0,69,0.00,,,0.00,weatherlink.com 1.10,2013-03-08 18:21:00,
2013-03-08 12:36:00,42.8,34.0,30.38,SSE,161,4.0,12.0,70,0.00,,,0.00,weatherlink.com 1.10,2013-03-08 18:36:00,
2013-03-08 12:51:00,43.4,33.0,30.38,ESE,117,8.0,12.0,68,0.00,,,0.00,weatherlink.com 1.10,2013-03-08 18:51:00,
2013-03-08 13:07:00,43.6,34.0,30.37,ENE,70,2.0,12.0,69,0.00,,,0.00,weatherlink.com 1.10,2013-03-08 19:07:00,
2013-03-08 13:21:00,44.2,34.0,30.37,SE,140,3.0,12.0,67,0.00,,,0.00,weatherlink.com 1.10,2013-03-08 19:21:00,
2013-03-08 13:36:00,44.9,34.0,30.36,SE,133,6.0,10.0,65,0.00,,,0.00,weatherlink.com 1.10,2013-03-08 19:36:00,
2013-03-08 13:51:00,45.1,34.0,30.35,ESE,120,4.0,12.0,65,0.00,,,0.00,weatherlink.com 1.10,2013-03-08 19:51:00,
2013-03-08 14:06:00,45.5,34.0,30.35,SSE,153,5.0,13.0,65,0.00,,,0.00,weatherlink.com 1.10,2013-03-08 20:06:00,
2013-03-08 14:21:00,46.1,34.0,30.35,SSE,153,6.0,12.0,62,0.00,,,0.00,weatherlink.com 1.10,2013-03-08 20:21:00,
2013-03-08 14:36:00,46.5,35.0,30.34,ESE,121,5.0,9.0,64,0.00,,,0.00,weatherlink.com 1.10,2013-03-08 20:36:00,
2013-03-08 14:51:00,46.9,34.0,30.34,ESE,112,3.0,14.0,61,0.00,,,0.00,weatherlink.com 1.10,2013-03-08 20:51:00,
2013-03-08 15:06:00,47.2,34.0,30.33,ESE,105,2.0,14.0,61,0.00,,,0.00,weatherlink.com 1.10,2013-03-08 21:06:00,
2013-03-08 15:21:00,47.3,33.0,30.33,ESE,111,11.0,13.0,59,0.00,,,0.00,weatherlink.com 1.10,2013-03-08 21:21:00,
2013-03-08 15:36:00,47.0,33.0,30.34,SE,134,1.0,10.0,59,0.00,,,0.00,weatherlink.com 1.10,2013-03-08 21:36:00,
2013-03-08 15:51:00,47.7,34.0,30.34,SSE,156,5.0,9.0,59,0.00,,,0.00,weatherlink.com 1.10,2013-03-08 21:51:00,
2013-03-08 16:06:00,46.4,33.0,30.34,South,174,4.0,10.0,61,0.00,,,0.00,weatherlink.com 1.10,2013-03-08 22:06:00,
2013-03-08 16:21:00,45.5,33.0,30.34,SSE,156,4.0,9.0,63,0.00,,,0.00,weatherlink.com 1.10,2013-03-08 22:21:00,
2013-03-08 16:36:00,45.4,34.0,30.34,SSE,153,1.0,9.0,65,0.00,,,0.00,weatherlink.com 1.10,2013-03-08 22:36:00,
2013-03-08 16:51:00,45.1,35.0,30.34,SSE,164,3.0,8.0,67,0.00,,,0.00,weatherlink.com 1.10,2013-03-08 22:51:00,
2013-03-08 17:06:00,44.5,35.0,30.33,ESE,123,5.0,6.0,69,0.00,,,0.00,weatherlink.com 1.10,2013-03-08 23:06:00,
2013-03-08 17:21:00,44.4,35.0,30.34,SE,126,3.0,8.0,69,0.00,,,0.00,weatherlink.com 1.10,2013-03-08 23:21:00,
2013-03-08 17:36:00,44.0,35.0,30.33,ESE,115,3.0,7.0,71,0.00,,,0.00,weatherlink.com 1.10,2013-03-08 23:36:00,
2013-03-08 17:51:00,43.4,35.0,30.32,ESE,112,1.0,5.0,72,0.00,,,0.00,weatherlink.com 1.10,2013-03-08 23:51:00,
2013-03-08 18:06:00,42.5,35.0,30.32,East,100,1.0,3.0,74,0.00,,,0.00,weatherlink.com 1.10,2013-03-09 00:06:00,
2013-03-08 18:21:00,42.4,35.0,30.32,ESE,120,2.0,7.0,75,0.00,,,0.00,weatherlink.com 1.10,2013-03-09 00:21:00,
2013-03-08 18:36:00,42.0,35.0,30.32,SE,134,3.0,7.0,76,0.00,,,0.00,weatherlink.com 1.10,2013-03-09 00:36:00,
2013-03-08 18:51:00,41.7,35.0,30.32,ESE,117,2.0,5.0,77,0.00,,,0.00,weatherlink.com 1.10,2013-03-09 00:51:00,
2013-03-08 19:06:00,41.4,35.0,30.31,ESE,123,0.0,5.0,77,0.00,,,0.00,weatherlink.com 1.10,2013-03-09 01:06:00,
2013-03-08 19:21:00,41.3,35.0,30.31,SE,125,0.0,5.0,78,0.00,,,0.00,weatherlink.com 1.10,2013-03-09 01:21:00,
2013-03-08 19:36:00,40.8,34.0,30.31,ESE,108,1.0,7.0,78,0.00,,,0.00,weatherlink.com 1.10,2013-03-09 01:36:00,
2013-03-08 19:51:00,40.6,35.0,30.30,ESE,104,1.0,8.0,79,0.00,,,0.00,weatherlink.com 1.10,2013-03-09 01:51:00,
2013-03-08 20:06:00,40.9,35.0,30.30,ESE,121,1.0,7.0,78,0.00,,,0.00,weatherlink.com 1.10,2013-03-09 02:06:00,
2013-03-08 20:22:00,41.3,35.0,30.29,ESE,103,4.0,10.0,77,0.00,,,0.00,weatherlink.com 1.10,2013-03-09 02:22:00,
2013-03-08 20:36:00,41.3,35.0,30.29,SE,130,2.0,12.0,77,0.00,,,0.00,weatherlink.com 1.10,2013-03-09 02:36:00,
2013-03-08 20:51:00,41.3,34.0,30.28,SSE,161,10.0,12.0,76,0.00,,,0.00,weatherlink.com 1.10,2013-03-09 02:51:00,
2013-03-08 21:06:00,41.1,34.0,30.28,SE,134,7.0,11.0,76,0.00,,,0.00,weatherlink.com 1.10,2013-03-09 03:06:00,
2013-03-08 21:22:00,41.0,34.0,30.28,SSE,157,6.0,15.0,77,0.00,,,0.00,weatherlink.com 1.10,2013-03-09 03:22:00,
2013-03-08 21:37:00,40.7,34.0,30.28,ESE,103,4.0,11.0,77,0.00,,,0.00,weatherlink.com 1.10,2013-03-09 03:37:00,
2013-03-08 21:52:00,40.5,34.0,30.27,SE,125,8.0,13.0,78,0.00,,,0.00,weatherlink.com 1.10,2013-03-09 03:52:00,
2013-03-08 22:07:00,40.6,34.0,30.26,ESE,116,8.0,12.0,78,0.00,,,0.00,weatherlink.com 1.10,2013-03-09 04:07:00,
2013-03-08 22:22:00,40.7,34.0,30.28,SSE,150,3.0,10.0,77,0.00,,,0.00,weatherlink.com 1.10,2013-03-09 04:22:00,
2013-03-08 22:37:00,40.4,34.0,30.27,ESE,119,1.0,8.0,78,0.00,,,0.00,weatherlink.com 1.10,2013-03-09 04:37:00,
2013-03-08 22:52:00,40.1,34.0,30.27,ESE,123,2.0,7.0,78,0.00,,,0.00,weatherlink.com 1.10,2013-03-09 04:52:00,
2013-03-08 23:07:00,40.0,34.0,30.26,SSW,204,6.0,8.0,78,0.00,,,0.00,weatherlink.com 1.10,2013-03-09 05:07:00,
2013-03-08 23:22:00,40.4,34.0,30.26,SE,138,5.0,10.0,78,0.00,,,0.00,weatherlink.com 1.10,2013-03-09 05:22:00,
2013-03-08 23:37:00,40.4,34.0,30.24,SE,132,3.0,12.0,77,0.00,,,0.00,weatherlink.com 1.10,2013-03-09 05:37:00,
2013-03-08 23:52:00,40.7,34.0,30.23,SE,133,2.0,11.0,76,0.00,,,0.00,weatherlink.com 1.10,2013-03-09 05:52:00,